Latest Weather Observations for Cooktown

IDQ60801

Issued at 2:32 pm EST Thursday 30 March 2017 (issued every 30 minutes, with the page automatically refreshed every 10 minutes)

About weather observations | Map of weather stations | Latest weather observations for QLD | Other Formats
Station Details ID: 031209 Name: COOKTOWN AIRPORT Lat: -15.45 Lon: 145.19 Height: 4.8 m
Data from the previous 72 hours. | See also: Recent months at Cooktown
Date/Time
EST
Temp
°C
App
Temp
°C
Dew
Point
°C
Rel
Hum
%
Delta-T
°C
Wind Press
QNH
hPa
Press
MSL
hPa
Rain since
9am
mm
Dir  Spd
km/h
Gust
km/h
Spd
kts
Gust
kts
30/02:30pm 32.3 36.9 26.5 71 4.2 E 15 20 8 11 1007.0 - 0.0
30/02:00pm 32.8 37.7 27.0 71 4.2 ESE 15 19 8 10 1007.5 - 0.0
30/01:30pm 34.4 40.5 25.7 60 6.2 SSE 4 7 2 4 1007.7 - 0.0
30/01:00pm 34.2 39.1 25.2 59 6.4 NW 9 15 5 8 1008.3 - 0.0
30/12:30pm 34.4 38.5 24.6 56 6.9 N 11 15 6 8 1009.0 - 0.0
30/12:00pm 33.2 37.4 24.8 61 5.9 NW 11 17 6 9 1009.6 1009.6 0.0
30/11:30am 33.3 38.6 25.9 65 5.3 N 9 13 5 7 1010.1 - 0.0
30/11:00am 32.1 37.7 25.8 69 4.5 N 7 11 4 6 1010.4 - 0.0
30/10:30am 31.8 36.9 26.1 72 4.1 N 11 17 6 9 1010.8 - 0.0
30/10:00am 31.6 37.2 25.8 71 4.1 WNW 7 15 4 8 1010.7 - 0.0
30/09:49am 31.9 37.8 26.2 72 4.1 W 7 13 4 7 1010.8 - 0.0
30/09:41am 31.5 37.4 26.2 73 3.8 W 7 11 4 6 1010.8 - 0.0
30/09:30am 31.3 37.3 26.4 75 3.5 W 7 11 4 6 1010.8 - 0.0
30/09:09am 30.7 36.4 26.4 78 3.1 NW 9 15 5 8 1010.9 - 0.0
30/09:00am 30.2 35.2 26.0 78 3.0 NW 11 15 6 8 1010.9 1010.8 0.0
30/08:40am 29.6 34.5 25.9 80 2.6 NW 11 15 6 8 1010.8 - 0.0
30/08:35am 29.5 34.4 25.8 80 2.6 WNW 11 15 6 8 1010.8 - 0.0
30/08:30am 29.6 34.7 26.1 81 2.5 WNW 11 15 6 8 1010.8 - 0.0
30/08:00am 28.0 33.5 26.2 90 1.3 N 9 11 5 6 1010.7 - 0.0
30/07:33am 26.9 32.8 26.2 96 0.5 NW 7 7 4 4 1010.7 - 0.0
30/07:30am 26.9 32.8 26.2 96 0.5 NW 7 7 4 4 1010.6 - 0.0
30/07:11am 26.7 32.7 26.0 96 0.5 W 6 7 3 4 1010.3 - 0.0
30/07:00am 26.5 33.5 25.9 96 0.4 CALM 0 0 0 0 1010.2 - 0.0
30/06:30am 26.3 33.2 25.7 96 0.4 CALM 0 0 0 0 1009.7 - 0.0
30/06:00am 26.5 32.4 25.9 96 0.4 SSW 6 7 3 4 1009.3 1009.1 0.0
30/05:30am 26.4 33.3 25.7 96 0.5 CALM 0 0 0 0 1009.0 - 0.0
30/05:00am 26.4 33.3 25.7 96 0.5 CALM 0 0 0 0 1008.7 - 0.0
30/04:30am 26.6 33.5 25.7 95 0.6 CALM 0 0 0 0 1008.4 - 0.0
30/04:13am 26.8 33.0 25.8 94 0.7 W 4 6 2 3 1008.3 - 0.0
30/04:08am 26.7 33.0 25.9 95 0.6 WNW 4 6 2 3 1008.4 - 0.0
30/04:00am 26.7 32.5 25.7 94 0.7 WNW 6 6 3 3 1008.4 - 0.0
30/03:52am 26.6 32.4 25.7 95 0.6 WNW 6 7 3 4 1008.4 - 0.0
30/03:30am 26.6 33.3 25.9 96 0.5 S 2 6 1 3 1008.5 - 0.0
30/03:00am 26.5 33.5 25.8 96 0.5 CALM 0 0 0 0 1008.2 1008.1 0.0
30/02:30am 26.4 32.6 25.8 96 0.4 SW 4 7 2 4 1008.4 - 0.0
30/02:21am 26.3 33.2 25.7 96 0.4 CALM 0 0 0 0 1008.5 - 0.0
30/02:07am 26.1 32.5 25.5 96 0.4 WNW 2 6 1 3 1008.2 - 0.0
30/02:05am 26.1 32.1 25.5 96 0.4 WNW 4 7 2 4 1008.3 - 0.0
30/02:00am 26.1 31.7 25.5 96 0.4 WNW 6 7 3 4 1008.4 - 0.0
30/01:44am 26.1 32.9 25.5 96 0.4 CALM 0 0 0 0 1008.5 - 0.0
30/01:40am 26.1 32.9 25.5 96 0.4 CALM 0 0 0 0 1008.5 - 0.0
30/01:30am 26.0 32.3 25.4 96 0.4 WNW 2 7 1 4 1008.6 - 0.0
30/01:00am 26.1 32.9 25.5 96 0.4 CALM 0 0 0 0 1008.9 - 0.0
30/12:30am 26.1 32.8 25.4 96 0.5 CALM 0 0 0 0 1008.9 - 0.0
30/12:00am 26.4 33.3 25.7 96 0.5 CALM 0 0 0 0 1009.1 1009.0 0.0
 
Date/Time
EST
Temp
°C
App
Temp
°C
Dew
Point
°C
Rel
Hum
%
Delta-T
°C
Wind Press
QNH
hPa
Press
MSL
hPa
Rain since
9am
mm
Dir  Spd
km/h
Gust
km/h
Spd
kts
Gust
kts
29/11:30pm 26.7 33.5 25.6 94 0.8 CALM 0 0 0 0 1008.8 - 0.0
29/11:00pm 27.3 33.4 25.6 90 1.2 NW 4 6 2 3 1009.0 - 0.0
29/10:58pm 27.4 33.5 25.7 90 1.2 NW 4 6 2 3 1009.0 - 0.0
29/10:54pm 27.5 33.1 25.5 89 1.4 NW 6 6 3 3 1009.0 - 0.0
29/10:31pm 27.7 33.2 25.6 88 1.5 WNW 7 7 4 4 1009.1 - 0.0
29/10:30pm 27.7 33.3 25.7 89 1.4 WNW 7 7 4 4 1009.1 - 0.0
29/10:00pm 28.1 32.8 25.5 86 1.8 N 11 15 6 8 1008.8 - 0.0
29/09:30pm 28.2 32.9 25.5 85 1.9 N 11 19 6 10 1008.6 - 0.0
29/09:21pm 28.3 32.6 25.5 85 2.0 N 13 20 7 11 1008.4 - 0.0
29/09:00pm 28.1 32.8 25.5 86 1.8 N 11 17 6 9 1008.2 1008.1 0.0
29/08:30pm 28.1 33.3 25.1 84 2.1 N 7 13 4 7 1007.8 - 0.0
29/08:00pm 28.0 32.9 24.7 82 2.3 N 7 9 4 5 1007.3 - 0.0
29/07:41pm 28.1 33.0 24.7 82 2.4 N 7 9 4 5 1006.8 - 0.0
29/07:30pm 27.9 32.8 24.6 82 2.3 N 7 9 4 5 1006.8 - 0.0
29/07:00pm 28.2 33.3 24.6 81 2.5 N 6 7 3 4 1006.4 - 0.0
29/06:30pm 28.6 33.5 24.6 79 2.8 N 7 11 4 6 1005.7 - 0.0
29/06:00pm 29.6 34.5 25.2 77 3.1 NNE 9 13 5 7 1005.2 1005.0 0.0
29/05:30pm 30.9 35.5 25.4 72 3.9 N 11 15 6 8 1004.4 - 0.0
29/05:00pm 30.9 35.6 25.5 73 3.8 N 11 17 6 9 1004.2 - 0.0
29/04:30pm 31.5 34.4 25.1 69 4.5 N 19 26 10 14 1004.1 - 0.0
29/04:00pm 33.4 37.2 25.9 65 5.4 N 17 22 9 12 1004.0 - 0.0
29/03:30pm 35.2 38.3 24.8 55 7.4 WNW 17 24 9 13 1003.9 - 0.0
29/03:00pm 34.9 38.5 24.3 54 7.5 NW 13 20 7 11 1003.9 1003.7 0.0
29/02:30pm 34.0 36.7 23.4 54 7.4 WNW 15 24 8 13 1004.1 - 0.0
29/02:00pm 34.4 36.8 23.7 53 7.5 W 17 26 9 14 1004.4 - 0.0
29/01:30pm 34.7 37.4 24.2 54 7.4 W 17 28 9 15 1004.9 - 0.0
29/01:00pm 34.6 38.0 24.7 56 7.0 WNW 15 26 8 14 1005.3 - 0.0
29/12:30pm 34.1 36.0 23.8 55 7.2 NW 20 30 11 16 1005.7 - 0.0
29/12:00pm 33.1 35.3 23.3 56 6.8 W 17 26 9 14 1006.2 1006.2 0.0
29/11:30am 33.3 35.7 24.3 59 6.3 WNW 19 26 10 14 1006.7 - 0.0
29/11:00am 32.3 34.7 24.2 62 5.7 WNW 19 24 10 13 1007.0 - 0.0
29/10:30am 31.8 34.3 24.5 65 5.1 WNW 19 26 10 14 1007.2 - 0.0
29/10:00am 31.8 34.2 25.2 68 4.7 NW 22 32 12 17 1007.5 - 0.0
29/09:30am 30.1 34.3 25.3 75 3.4 W 13 20 7 11 1007.6 - 0.0
29/09:00am 29.4 33.4 25.6 80 2.7 W 15 20 8 11 1007.3 1007.2 0.0
29/08:30am 29.2 33.3 25.8 82 2.4 NW 15 19 8 10 1007.1 - 0.0
29/08:00am 28.6 33.1 25.8 85 2.0 NW 13 17 7 9 1006.7 - 0.0
29/07:30am 27.5 31.8 25.5 89 1.4 NW 13 17 7 9 1006.3 - 0.0
29/07:00am 26.5 32.1 25.4 94 0.8 NNW 6 7 3 4 1005.8 - 0.0
29/06:30am 26.2 31.6 25.2 94 0.7 NW 6 7 3 4 1005.3 - 0.0
29/06:00am 26.6 32.1 25.3 93 0.9 WSW 6 7 3 4 1005.0 1004.8 0.0
29/05:37am 26.6 32.5 25.3 93 0.9 NW 4 7 2 4 1004.9 - 0.0
29/05:30am 26.7 33.0 25.3 92 1.0 NW 2 7 1 4 1004.9 - 0.0
29/05:01am 26.7 31.5 25.1 91 1.1 WNW 9 11 5 6 1004.8 - 0.0
29/05:00am 26.7 31.5 25.1 91 1.1 WNW 9 11 5 6 1004.8 - 0.0
29/04:30am 26.2 31.6 25.1 94 0.8 W 6 9 3 5 1004.5 - 0.0
29/04:00am 25.9 32.3 24.9 94 0.7 CALM 0 0 0 0 1004.4 - 0.0
29/03:30am 26.1 32.1 24.8 92 0.9 WNW 2 6 1 3 1004.4 - 0.0
29/03:00am 26.1 32.4 24.7 92 1.0 CALM 0 0 0 0 1004.6 1004.5 0.0
29/02:30am 27.0 31.9 24.4 86 1.8 W 6 7 3 4 1004.8 - 0.0
29/02:00am 27.1 31.4 24.2 84 2.0 W 9 15 5 8 1005.0 - 0.0
29/01:30am 26.3 30.3 23.8 86 1.7 NW 9 11 5 6 1004.8 - 0.0
29/01:00am 27.2 31.0 23.4 80 2.6 WNW 9 13 5 7 1005.1 - 0.0
29/12:30am 26.8 31.3 23.7 83 2.1 WNW 6 9 3 5 1005.4 - 0.0
29/12:00am 27.6 31.8 23.4 78 2.9 W 7 9 4 5 1005.4 1005.4 0.0
 
Date/Time
EST
Temp
°C
App
Temp
°C
Dew
Point
°C
Rel
Hum
%
Delta-T
°C
Wind Press
QNH
hPa
Press
MSL
hPa
Rain since
9am
mm
Dir  Spd
km/h
Gust
km/h
Spd
kts
Gust
kts
28/11:30pm 26.9 33.5 25.2 90 1.2 CALM 0 0 0 0 1005.5 - 0.0
28/11:00pm 27.5 33.3 25.2 87 1.6 NNW 4 7 2 4 1005.6 - 0.0
28/10:30pm 27.7 33.3 25.4 87 1.6 NNW 6 7 3 4 1005.4 - 0.0
28/10:00pm 28.4 33.1 25.0 82 2.4 WNW 9 13 5 7 1005.3 - 0.0
28/09:30pm 28.2 32.7 25.2 84 2.1 NW 11 13 6 7 1005.2 - 0.0
28/09:00pm 28.4 33.0 25.3 83 2.2 NNW 11 15 6 8 1005.2 1005.1 0.0
28/08:30pm 28.6 34.6 25.5 83 2.2 NNW 4 9 2 5 1005.1 - 0.0
28/08:00pm 29.0 33.0 25.6 82 2.4 N 15 20 8 11 1004.6 - 0.0
28/07:30pm 29.1 32.2 25.4 80 2.6 N 19 24 10 13 1004.1 - 0.0
28/07:00pm 29.3 32.8 24.9 77 3.1 N 15 20 8 11 1003.5 - 0.0
28/06:30pm 30.6 35.4 26.3 78 3.1 N 13 19 7 10 1002.8 - 0.0
28/06:00pm 32.0 38.2 26.3 72 4.1 WNW 6 7 3 4 1002.4 1002.3 0.0
28/05:30pm 32.9 37.5 24.8 62 5.7 WNW 9 13 5 7 1002.2 - 0.0
28/05:00pm 33.6 37.0 24.1 57 6.7 WNW 13 17 7 9 1001.9 - 0.0
28/04:30pm 34.1 37.2 23.5 54 7.4 WNW 13 20 7 11 1001.7 - 0.0
28/04:00pm 34.3 37.5 23.7 54 7.4 WNW 13 20 7 11 1001.6 - 0.0
28/03:30pm 34.6 37.3 24.2 54 7.3 WNW 17 28 9 15 1001.6 - 0.0
28/03:00pm 34.6 36.5 23.8 53 7.6 WNW 20 30 11 16 1001.8 1001.7 0.0
28/02:30pm 34.8 37.9 24.2 54 7.4 WNW 15 22 8 12 1002.1 - 0.0
28/02:00pm 34.7 36.5 24.2 54 7.4 WNW 22 33 12 18 1002.7 - 0.0
28/01:30pm 34.1 36.4 24.1 56 7.0 WNW 19 28 10 15 1003.2 - 0.0
28/01:00pm 34.3 36.2 24.4 56 7.0 WNW 22 33 12 18 1003.6 - 0.0
28/12:30pm 34.1 36.7 24.6 57 6.7 WNW 19 28 10 15 1004.1 - 0.0
28/12:00pm 33.1 37.2 25.2 63 5.6 WSW 13 24 7 13 1004.5 1004.5 0.0
28/11:30am 32.5 35.8 24.5 62 5.6 WSW 15 24 8 13 1005.0 - 0.0
28/11:00am 33.2 36.7 25.5 64 5.5 WNW 17 26 9 14 1005.4 - 0.0
28/10:30am 32.5 36.0 25.5 66 5.0 W 17 26 9 14 1005.9 - 0.0
28/10:00am 31.5 34.8 25.1 69 4.5 WNW 17 20 9 11 1006.3 - 0.0
28/09:30am 31.4 35.2 25.3 70 4.3 WNW 15 24 8 13 1006.6 - 0.0
28/09:00am 30.1 34.1 25.1 74 3.5 W 13 20 7 11 1006.7 1006.6 0.0
28/08:30am 29.2 33.8 25.4 80 2.7 WNW 11 17 6 9 1006.7 - 0.0
28/08:00am 28.9 32.9 25.1 80 2.7 NW 13 17 7 9 1006.5 - 0.0
28/07:30am 28.3 31.7 25.2 83 2.2 NNW 17 20 9 11 1006.2 - 0.0
28/07:00am 27.3 31.2 24.9 87 1.7 NW 13 15 7 8 1006.0 - 0.0
28/06:30am 27.4 30.8 24.7 85 1.9 WNW 15 20 8 11 1005.9 - 0.0
28/06:00am 27.4 30.9 24.8 86 1.8 WNW 15 19 8 10 1005.4 1005.3 0.0
28/05:30am 27.5 30.7 24.9 86 1.8 WNW 17 24 9 13 1004.9 - 0.0
28/05:00am 27.5 31.8 24.9 86 1.8 WNW 11 17 6 9 1004.8 - 0.0
28/04:30am 27.0 31.6 25.3 90 1.2 WNW 11 17 6 9 1004.5 - 0.0
28/04:00am 26.7 30.9 25.3 92 1.0 NW 13 19 7 10 1004.4 - 0.0
28/03:30am 27.2 32.1 25.2 89 1.4 NW 9 13 5 7 1004.6 - 0.0
28/03:00am 27.7 32.7 25.4 87 1.6 W 9 13 5 7 1004.5 1004.4 0.0
28/02:30am 27.7 33.2 25.6 88 1.5 W 7 11 4 6 1004.7 - 0.0
28/02:00am 27.9 32.6 25.6 87 1.6 WNW 11 15 6 8 1005.0 - 0.0
28/01:30am 28.0 33.1 25.6 87 1.7 W 9 13 5 7 1005.3 - 0.0
28/01:00am 28.3 33.0 25.5 85 2.0 WNW 11 17 6 9 1005.6 - 0.0
28/12:30am 28.3 32.6 24.9 82 2.4 W 11 17 6 9 1005.9 - 0.0
28/12:00am 27.9 32.2 24.3 81 2.5 WNW 9 13 5 7 1006.1 1006.1 0.0
 
Date/Time
EST
Temp
°C
App
Temp
°C
Dew
Point
°C
Rel
Hum
%
Delta-T
°C
Wind Press
QNH
hPa
Press
MSL
hPa
Rain since
9am
mm
Dir  Spd
km/h
Gust
km/h
Spd
kts
Gust
kts
27/11:30pm 28.7 32.8 23.9 75 3.3 W 9 13 5 7 1006.3 - 0.0
27/11:00pm 29.0 32.3 23.8 73 3.6 WNW 13 19 7 10 1006.4 - 0.0
27/10:30pm 28.6 32.2 23.8 75 3.3 WNW 11 15 6 8 1006.4 - 0.0
27/10:00pm 28.9 33.0 24.0 75 3.4 W 9 13 5 7 1006.3 - 0.0
27/09:30pm 28.6 32.8 24.1 76 3.1 W 9 13 5 7 1006.2 - 0.0
27/09:00pm 27.2 33.6 24.9 87 1.6 CALM 0 0 0 0 1006.0 1005.8 0.0
27/08:30pm 27.4 33.9 25.0 87 1.7 CALM 0 0 0 0 1005.7 - 0.0
27/08:00pm 28.0 34.8 25.6 87 1.7 CALM 0 0 0 0 1005.3 - 0.0
27/07:30pm 28.6 34.5 24.1 76 3.1 CALM 0 0 0 0 1004.9 - 0.0
27/07:00pm 29.3 35.7 24.9 77 3.1 CALM 0 2 0 1 1004.8 - 0.0
27/06:30pm 30.8 35.8 24.5 69 4.4 W 6 7 3 4 1004.4 - 0.0
27/06:00pm 33.3 37.2 23.0 54 7.1 WNW 7 11 4 6 1004.1 1003.9 0.0
27/05:30pm 34.4 36.2 20.4 44 9.4 W 11 15 6 8 1003.8 - 0.0
27/05:00pm 35.2 37.2 20.7 42 9.8 W 11 20 6 11 1003.6 - 0.0
27/04:30pm 35.4 36.7 20.2 41 10.2 WSW 13 24 7 13 1003.4 - 0.0
27/04:00pm 35.5 36.1 19.4 38 10.7 W 15 26 8 14 1003.4 - 0.0
27/03:30pm 35.2 36.0 19.8 40 10.2 WSW 15 20 8 11 1003.4 - 0.0
27/03:00pm 35.5 37.1 21.4 44 9.6 W 15 20 8 11 1003.6 1003.5 0.0

Other Formats:

Comma delimited format used in spreadsheet applications
http://www.bom.gov.au/fwo/IDQ60801/IDQ60801.95283.axf

JavaScript Object Notation format (JSON) in row-major order
http://www.bom.gov.au/fwo/IDQ60801/IDQ60801.95283.json